Time;durP1;ratioP1;P1;durP2;ratioP2;P2;SDS_P1;SDS_P2;PMS_P1;PMS_P2;Temp;Humidity;BMP_temperature;BMP_pressure;BME280_temperature;BME280_humidity;BME280_pressure;Samples;Min_cycle;Max_cycle;Signal;HPM_P1;HPM_P2
2021/06/07 00:01:04;;;;;;;10.50;8.63;;;;;;;;;;1896698;67;20206;-52
2021/06/07 00:03:29;;;;;;;9.75;8.38;;;;;;;;;;1892746;68;20159;-53
2021/06/07 00:05:55;;;;;;;11.02;8.82;;;;;;;;;;1894822;75;20093;-55
2021/06/07 00:08:21;;;;;;;10.77;8.65;;;;;;;;;;1895701;75;20092;-52
2021/06/07 00:10:46;;;;;;;9.45;8.40;;;;;;;;;;1895849;75;20094;-54
2021/06/07 00:13:12;;;;;;;10.43;8.40;;;;;;;;;;1892797;68;20097;-52
2021/06/07 00:15:37;;;;;;;9.90;8.30;;;;;;;;;;1897026;75;20200;-55
2021/06/07 00:18:03;;;;;;;10.10;8.70;;;;;;;;;;1898506;75;20077;-54
2021/06/07 00:20:30;;;;;;;9.02;8.13;;;;;;;;;;1898130;75;20105;-54
2021/06/07 00:22:55;;;;;;;9.15;8.18;;;;;;;;;;1896798;67;20141;-53
2021/06/07 00:25:21;;;;;;;9.00;7.63;;;;;;;;;;1896197;75;20090;-54
2021/06/07 00:27:46;;;;;;;9.07;8.13;;;;;;;;;;1895437;75;20078;-53
2021/06/07 00:30:12;;;;;;;9.10;8.15;;;;;;;;;;1896420;75;20170;-52
2021/06/07 00:32:37;;;;;;;9.32;7.90;;;;;;;;;;1898907;75;20084;-55
2021/06/07 00:35:03;;;;;;;9.82;7.97;;;;;;;;;;1897408;67;20523;-52
2021/06/07 00:37:28;;;;;;;9.20;8.25;;;;;;;;;;1895518;75;20090;-54
2021/06/07 00:39:53;;;;;;;8.50;7.57;;;;;;;;;;1896165;75;20104;-54
2021/06/07 00:42:19;;;;;;;9.23;8.20;;;;;;;;;;1895694;75;20132;-56
2021/06/07 00:44:46;;;;;;;9.60;8.50;;;;;;;;;;1896815;67;20105;-55
2021/06/07 00:47:11;;;;;;;9.32;8.32;;;;;;;;;;1898423;75;20088;-54
2021/06/07 00:49:37;;;;;;;9.02;7.60;;;;;;;;;;1898642;75;20085;-53
2021/06/07 00:52:03;;;;;;;8.55;7.72;;;;;;;;;;1899110;75;20100;-53
2021/06/07 00:54:28;;;;;;;10.93;8.25;;;;;;;;;;1896314;75;20173;-53
2021/06/07 00:56:53;;;;;;;9.18;8.18;;;;;;;;;;1896176;67;20085;-53
2021/06/07 00:59:19;;;;;;;8.55;7.55;;;;;;;;;;1895907;75;20106;-53
2021/06/07 01:01:44;;;;;;;8.75;7.72;;;;;;;;;;1903287;62;20085;-77
2021/06/07 01:04:10;;;;;;;8.75;7.85;;;;;;;;;;1903180;75;20140;-76
2021/06/07 01:06:37;;;;;;;8.10;7.30;;;;;;;;;;1900112;67;20085;-75
2021/06/07 01:09:03;;;;;;;9.23;7.43;;;;;;;;;;1900428;75;20104;-77
2021/06/07 01:11:28;;;;;;;8.90;8.00;;;;;;;;;;1900423;75;20094;-76
2021/06/07 01:13:54;;;;;;;8.38;7.57;;;;;;;;;;1897590;75;20112;-75
2021/06/07 01:16:19;;;;;;;10.25;8.55;;;;;;;;;;1899028;75;20151;-77
2021/06/07 01:18:45;;;;;;;8.63;7.72;;;;;;;;;;1898238;67;20085;-76
2021/06/07 01:21:14;;;;;;;9.05;7.93;;;;;;;;;;1897705;75;20525;-77
2021/06/07 01:23:41;;;;;;;8.35;7.50;;;;;;;;;;1899768;75;20093;-78
2021/06/07 01:26:06;;;;;;;8.70;7.85;;;;;;;;;;1897844;75;20093;-77
2021/06/07 01:28:32;;;;;;;9.20;8.23;;;;;;;;;;1900295;67;20086;-77
2021/06/07 01:30:57;;;;;;;9.35;7.75;;;;;;;;;;1901855;75;20093;-76
2021/06/07 01:33:24;;;;;;;8.65;7.75;;;;;;;;;;1903036;75;20155;-77
2021/06/07 01:35:51;;;;;;;10.50;8.23;;;;;;;;;;1900392;75;20134;-78
2021/06/07 01:38:16;;;;;;;9.35;8.27;;;;;;;;;;1900025;75;20100;-75
2021/06/07 01:40:45;;;;;;;8.27;7.47;;;;;;;;;;1903359;67;20206;-78
2021/06/07 01:43:10;;;;;;;8.55;7.65;;;;;;;;;;1903088;75;20640;-77
2021/06/07 01:45:36;;;;;;;9.48;7.78;;;;;;;;;;1900182;75;20085;-77
2021/06/07 01:48:04;;;;;;;9.07;8.18;;;;;;;;;;1900330;75;20530;-78
2021/06/07 01:50:29;;;;;;;9.13;8.23;;;;;;;;;;1896097;67;20161;-77
2021/06/07 01:52:55;;;;;;;8.75;7.38;;;;;;;;;;1899259;75;20428;-78
2021/06/07 01:55:22;;;;;;;8.68;7.78;;;;;;;;;;1897388;75;20078;-78
2021/06/07 01:57:48;;;;;;;8.70;7.90;;;;;;;;;;1897313;75;20503;-77
2021/06/07 02:00:17;;;;;;;8.75;7.68;;;;;;;;;;1897511;75;20112;-76
2021/06/07 02:02:43;;;;;;;9.65;8.20;;;;;;;;;;1897931;67;20089;-75
2021/06/07 02:05:10;;;;;;;8.70;7.80;;;;;;;;;;1900527;67;20157;-75
2021/06/07 02:07:35;;;;;;;9.13;8.10;;;;;;;;;;1899982;75;20181;-76
2021/06/07 02:10:00;;;;;;;9.10;7.72;;;;;;;;;;1903311;75;20434;-76
2021/06/07 02:12:26;;;;;;;10.25;8.25;;;;;;;;;;1901230;67;20094;-78
2021/06/07 02:14:51;;;;;;;8.82;7.70;;;;;;;;;;1903246;75;20077;-77
2021/06/07 02:17:16;;;;;;;8.82;7.93;;;;;;;;;;1902835;75;20097;-78
2021/06/07 02:19:47;;;;;;;10.20;7.75;;;;;;;;;;1900485;75;20092;-77
2021/06/07 02:22:12;;;;;;;8.00;7.18;;;;;;;;;;1897833;75;20089;-77
2021/06/07 02:24:38;;;;;;;8.02;7.22;;;;;;;;;;1901475;67;20608;-76
2021/06/07 02:27:03;;;;;;;8.00;7.20;;;;;;;;;;1897678;75;20092;-74
2021/06/07 02:29:29;;;;;;;8.32;7.50;;;;;;;;;;1900424;75;20093;-75
2021/06/07 02:31:54;;;;;;;8.13;7.32;;;;;;;;;;1896710;75;20089;-77
2021/06/07 02:34:19;;;;;;;8.35;7.07;;;;;;;;;;1900361;67;20074;-76
2021/06/07 02:36:45;;;;;;;7.88;7.07;;;;;;;;;;1902991;75;20085;-77
2021/06/07 02:39:12;;;;;;;7.88;7.07;;;;;;;;;;1903138;75;20084;-76
2021/06/07 02:41:38;;;;;;;8.15;7.38;;;;;;;;;;1896830;75;20569;-76
2021/06/07 02:44:04;;;;;;;8.50;7.43;;;;;;;;;;1897524;75;20132;-75
2021/06/07 02:46:29;;;;;;;8.18;7.32;;;;;;;;;;1900676;67;20089;-77
2021/06/07 02:48:54;;;;;;;8.00;7.20;;;;;;;;;;1899906;75;20144;-76
2021/06/07 02:51:20;;;;;;;8.52;7.63;;;;;;;;;;1900458;75;20135;-75
2021/06/07 02:53:48;;;;;;;7.90;7.10;;;;;;;;;;1899168;75;20084;-77
2021/06/07 02:56:13;;;;;;;8.07;7.28;;;;;;;;;;1900761;67;20131;-77
2021/06/07 02:58:38;;;;;;;8.52;7.60;;;;;;;;;;1897273;75;20089;-77
2021/06/07 03:01:07;;;;;;;8.65;7.75;;;;;;;;;;1902430;67;20089;-74
2021/06/07 03:03:32;;;;;;;8.27;7.28;;;;;;;;;;1899904;75;20081;-77
2021/06/07 03:05:58;;;;;;;8.63;7.75;;;;;;;;;;1901228;75;20095;-75
2021/06/07 03:08:26;;;;;;;7.22;6.53;;;;;;;;;;1905141;67;20104;-74
2021/06/07 03:10:53;;;;;;;8.23;7.00;;;;;;;;;;1898065;75;20442;-77
2021/06/07 03:13:19;;;;;;;8.05;7.28;;;;;;;;;;1900175;75;20092;-75
2021/06/07 03:15:44;;;;;;;7.95;7.20;;;;;;;;;;1900335;75;20530;-75
2021/06/07 03:18:09;;;;;;;8.23;7.43;;;;;;;;;;1905543;67;20084;-75
2021/06/07 03:20:35;;;;;;;7.80;7.00;;;;;;;;;;1899384;75;20081;-75
2021/06/07 03:23:02;;;;;;;7.32;6.60;;;;;;;;;;1896174;75;20089;-75
2021/06/07 03:25:29;;;;;;;8.18;7.30;;;;;;;;;;1900324;75;20081;-77
2021/06/07 03:27:56;;;;;;;7.82;7.03;;;;;;;;;;1900302;75;20085;-74
2021/06/07 03:30:21;;;;;;;7.40;6.78;;;;;;;;;;1900448;67;20573;-76
2021/06/07 03:32:47;;;;;;;7.75;7.00;;;;;;;;;;1900206;75;20081;-79
2021/06/07 03:35:13;;;;;;;7.78;6.97;;;;;;;;;;1902092;75;20093;-76
2021/06/07 03:37:39;;;;;;;7.13;6.53;;;;;;;;;;1895090;75;20385;-76
2021/06/07 03:40:06;;;;;;;7.70;7.00;;;;;;;;;;1895302;75;20092;-77
2021/06/07 03:42:32;;;;;;;7.30;6.63;;;;;;;;;;1899954;75;20086;-77
2021/06/07 03:44:57;;;;;;;7.20;6.50;;;;;;;;;;1898390;75;20093;-77
2021/06/07 03:47:23;;;;;;;6.97;6.28;;;;;;;;;;1898339;75;20092;-76
2021/06/07 03:49:48;;;;;;;7.28;6.53;;;;;;;;;;1900698;75;20096;-77
2021/06/07 03:52:13;;;;;;;7.30;6.65;;;;;;;;;;1900661;67;20085;-75
2021/06/07 03:54:39;;;;;;;7.47;6.78;;;;;;;;;;1903904;75;20089;-76
2021/06/07 03:57:05;;;;;;;7.43;6.80;;;;;;;;;;1901154;75;20096;-78
2021/06/07 03:59:30;;;;;;;7.68;6.90;;;;;;;;;;1901427;75;20148;-77
2021/06/07 04:01:57;;;;;;;8.25;7.20;;;;;;;;;;1899138;75;20529;-78
2021/06/07 04:04:22;;;;;;;7.75;6.95;;;;;;;;;;1904051;67;20092;-77
2021/06/07 04:06:47;;;;;;;7.65;6.95;;;;;;;;;;1903999;75;20085;-77
2021/06/07 04:09:13;;;;;;;7.47;6.78;;;;;;;;;;1901024;75;20115;-78
2021/06/07 04:11:38;;;;;;;7.50;6.80;;;;;;;;;;1898551;75;20082;-77
2021/06/07 04:14:03;;;;;;;8.18;6.97;;;;;;;;;;1902497;67;20081;-77
2021/06/07 04:16:29;;;;;;;7.55;6.80;;;;;;;;;;1903846;75;20089;-78
2021/06/07 04:18:54;;;;;;;8.85;7.28;;;;;;;;;;1900562;75;20077;-77
2021/06/07 04:21:19;;;;;;;7.00;6.30;;;;;;;;;;1901997;67;20085;-77
2021/06/07 04:23:45;;;;;;;7.20;6.50;;;;;;;;;;1901737;75;20136;-77
2021/06/07 04:26:10;;;;;;;8.60;7.20;;;;;;;;;;1903027;67;20096;-77
2021/06/07 04:28:39;;;;;;;7.63;6.85;;;;;;;;;;1900852;75;20395;-76
2021/06/07 04:31:04;;;;;;;7.70;6.70;;;;;;;;;;1902872;75;20077;-77
2021/06/07 04:33:30;;;;;;;8.40;6.93;;;;;;;;;;1902041;75;20120;-78
2021/06/07 04:35:55;;;;;;;8.05;7.20;;;;;;;;;;1905297;67;20093;-77
2021/06/07 04:38:21;;;;;;;7.45;6.75;;;;;;;;;;1901304;75;20097;-77
2021/06/07 04:40:47;;;;;;;7.35;6.40;;;;;;;;;;1902869;75;20085;-77
2021/06/07 04:43:13;;;;;;;7.30;6.60;;;;;;;;;;1901017;75;20077;-76
2021/06/07 04:45:40;;;;;;;7.35;6.60;;;;;;;;;;1898766;75;20618;-77
2021/06/07 04:48:06;;;;;;;7.65;6.95;;;;;;;;;;1902158;67;20161;-77
2021/06/07 04:50:31;;;;;;;7.57;6.88;;;;;;;;;;1900349;75;20096;-78
2021/06/07 04:53:01;;;;;;;8.23;7.25;;;;;;;;;;1898103;75;20108;-77
2021/06/07 04:55:43;;;;;;;7.70;6.90;;;;;;;;;;1898082;75;20213;-77
2021/06/07 04:58:22;;;;;;;8.60;7.07;;;;;;;;;;1898946;67;20092;-75
2021/06/07 05:00:50;;;;;;;7.63;6.65;;;;;;;;;;1899116;67;20085;-78
2021/06/07 05:03:16;;;;;;;7.78;7.03;;;;;;;;;;1903042;75;20088;-77
2021/06/07 05:05:42;;;;;;;8.40;6.95;;;;;;;;;;1897447;75;20089;-77
2021/06/07 05:08:07;;;;;;;8.98;7.38;;;;;;;;;;1903098;67;20088;-77
2021/06/07 05:10:33;;;;;;;8.30;6.95;;;;;;;;;;1896941;75;20089;-77
2021/06/07 05:12:58;;;;;;;8.52;7.22;;;;;;;;;;1897066;75;20089;-80
2021/06/07 05:15:23;;;;;;;7.93;7.13;;;;;;;;;;1900632;75;20091;-78
2021/06/07 05:17:49;;;;;;;12.65;7.90;;;;;;;;;;1897577;75;20155;-76
2021/06/07 05:20:17;;;;;;;10.35;8.15;;;;;;;;;;1896817;67;20399;-77
2021/06/07 05:22:42;;;;;;;12.85;7.72;;;;;;;;;;1897178;75;20510;-77
2021/06/07 05:25:08;;;;;;;9.63;7.97;;;;;;;;;;1898149;68;20081;-79
2021/06/07 05:27:34;;;;;;;9.23;7.15;;;;;;;;;;1898326;75;20569;-79
2021/06/07 05:30:00;;;;;;;9.32;7.32;;;;;;;;;;1895769;75;20086;-77
2021/06/07 05:32:26;;;;;;;9.50;7.05;;;;;;;;;;1904832;67;20085;-79
2021/06/07 05:34:52;;;;;;;8.43;7.35;;;;;;;;;;1897263;75;20090;-79
2021/06/07 05:37:17;;;;;;;21.70;10.95;;;;;;;;;;1897987;75;20486;-78
2021/06/07 05:39:42;;;;;;;25.05;16.63;;;;;;;;;;1897924;75;20104;-78
2021/06/07 05:42:08;;;;;;;23.83;17.20;;;;;;;;;;1902025;67;20099;-78
2021/06/07 05:44:33;;;;;;;21.38;15.95;;;;;;;;;;1899862;75;20088;-78
2021/06/07 05:46:58;;;;;;;22.95;13.90;;;;;;;;;;1902505;75;20096;-77
2021/06/07 05:49:24;;;;;;;17.02;12.10;;;;;;;;;;1899380;75;20115;-77
2021/06/07 05:51:49;;;;;;;16.33;12.13;;;;;;;;;;1899725;75;20627;-76
2021/06/07 05:54:14;;;;;;;15.98;12.23;;;;;;;;;;1900471;67;20080;-78
2021/06/07 05:56:40;;;;;;;17.23;11.82;;;;;;;;;;1899755;75;20134;-79
2021/06/07 05:59:06;;;;;;;15.68;11.98;;;;;;;;;;1904545;67;20089;-75
2021/06/07 06:01:31;;;;;;;15.98;11.50;;;;;;;;;;1901459;67;20085;-79
2021/06/07 06:03:56;;;;;;;15.98;11.38;;;;;;;;;;1900045;67;20097;-80
2021/06/07 06:06:22;;;;;;;14.73;11.93;;;;;;;;;;1898399;75;20089;-78
2021/06/07 06:08:49;;;;;;;12.50;10.68;;;;;;;;;;1897541;75;20089;-76
2021/06/07 06:11:14;;;;;;;13.60;11.20;;;;;;;;;;1902953;75;20073;-76
2021/06/07 06:13:40;;;;;;;13.98;10.75;;;;;;;;;;1900122;75;20092;-77
2021/06/07 06:16:05;;;;;;;13.82;10.73;;;;;;;;;;1904589;67;20092;-78
2021/06/07 06:18:30;;;;;;;13.23;10.73;;;;;;;;;;1900287;75;20089;-79
2021/06/07 06:20:56;;;;;;;12.68;10.77;;;;;;;;;;1900797;75;20513;-77
2021/06/07 06:23:21;;;;;;;15.82;11.80;;;;;;;;;;1896375;75;20431;-76
2021/06/07 06:25:47;;;;;;;12.80;11.30;;;;;;;;;;1899307;67;20085;-79
2021/06/07 06:28:12;;;;;;;15.63;12.43;;;;;;;;;;1903252;75;20081;-77
2021/06/07 06:30:37;;;;;;;22.80;17.80;;;;;;;;;;1902192;75;20085;-80
2021/06/07 06:33:03;;;;;;;24.25;16.48;;;;;;;;;;1898222;75;20081;-77
2021/06/07 06:35:28;;;;;;;22.92;17.50;;;;;;;;;;1906891;75;20402;-76
2021/06/07 06:37:54;;;;;;;23.08;17.73;;;;;;;;;;1900948;67;20080;-77
2021/06/07 06:40:27;;;;;;;23.48;17.85;;;;;;;;;;1898649;75;20100;-77
2021/06/07 06:42:54;;;;;;;24.77;19.23;;;;;;;;;;1901693;75;20081;-77
2021/06/07 06:45:19;;;;;;;24.60;18.90;;;;;;;;;;1900397;75;20562;-75
2021/06/07 06:47:44;;;;;;;22.52;19.23;;;;;;;;;;1901308;67;20085;-79
2021/06/07 06:50:11;;;;;;;24.52;19.75;;;;;;;;;;1900303;75;20081;-77
2021/06/07 06:52:36;;;;;;;23.65;19.52;;;;;;;;;;1895298;75;20103;-76
2021/06/07 06:55:03;;;;;;;23.85;19.30;;;;;;;;;;1895170;75;20449;-78
2021/06/07 06:57:28;;;;;;;24.05;19.38;;;;;;;;;;1899973;75;20096;-76
2021/06/07 06:59:54;;;;;;;23.05;19.15;;;;;;;;;;1903861;67;20110;-79
2021/06/07 07:02:19;;;;;;;26.35;19.17;;;;;;;;;;1904332;67;20077;-76
2021/06/07 07:04:45;;;;;;;22.05;18.75;;;;;;;;;;1898649;75;20096;-78
2021/06/07 07:07:10;;;;;;;26.88;19.33;;;;;;;;;;1897421;75;20093;-77
2021/06/07 07:09:36;;;;;;;23.67;18.23;;;;;;;;;;1900545;67;20109;-77
2021/06/07 07:12:01;;;;;;;22.77;18.33;;;;;;;;;;1901645;75;20077;-78
2021/06/07 07:14:27;;;;;;;23.05;17.13;;;;;;;;;;1901708;75;20097;-78
2021/06/07 07:16:53;;;;;;;22.60;17.60;;;;;;;;;;1900687;75;20162;-78
2021/06/07 07:19:20;;;;;;;21.33;17.42;;;;;;;;;;1903342;75;20433;-77
2021/06/07 07:21:45;;;;;;;25.33;18.35;;;;;;;;;;1903816;75;20195;-78
2021/06/07 07:24:11;;;;;;;22.33;18.58;;;;;;;;;;1904031;75;20866;-76
2021/06/07 07:26:37;;;;;;;21.15;17.80;;;;;;;;;;1901253;75;20080;-75
2021/06/07 07:29:02;;;;;;;20.17;16.98;;;;;;;;;;1900806;75;20121;-78
2021/06/07 07:31:27;;;;;;;18.33;16.02;;;;;;;;;;1905946;67;20085;-76
2021/06/07 07:33:53;;;;;;;17.92;16.02;;;;;;;;;;1903893;75;20081;-75
2021/06/07 07:36:18;;;;;;;19.73;15.93;;;;;;;;;;1900961;75;20089;-75
2021/06/07 07:38:44;;;;;;;18.05;16.08;;;;;;;;;;1900600;75;20138;-77
2021/06/07 07:41:10;;;;;;;20.00;15.63;;;;;;;;;;1900801;75;20116;-76
2021/06/07 07:43:36;;;;;;;20.60;15.52;;;;;;;;;;1899877;67;20093;-78
2021/06/07 07:46:01;;;;;;;18.52;15.45;;;;;;;;;;1902287;75;20132;-76
2021/06/07 07:48:27;;;;;;;17.70;14.90;;;;;;;;;;1898219;75;20085;-77
2021/06/07 07:50:52;;;;;;;16.10;14.35;;;;;;;;;;1901300;75;20154;-77
2021/06/07 07:53:19;;;;;;;16.90;14.05;;;;;;;;;;1902970;67;20491;-77
2021/06/07 07:55:44;;;;;;;16.98;15.18;;;;;;;;;;1898585;75;20088;-78
2021/06/07 07:58:13;;;;;;;16.45;14.60;;;;;;;;;;1898132;75;20078;-77
2021/06/07 08:00:39;;;;;;;19.05;14.48;;;;;;;;;;1901735;75;20487;-77
2021/06/07 08:03:05;;;;;;;17.15;13.80;;;;;;;;;;1902950;67;20092;-77
2021/06/07 08:05:30;;;;;;;18.63;14.70;;;;;;;;;;1898267;67;20093;-76
2021/06/07 08:07:56;;;;;;;16.58;14.07;;;;;;;;;;1900986;75;20084;-77
2021/06/07 08:10:21;;;;;;;17.60;13.93;;;;;;;;;;1902762;75;20141;-80
2021/06/07 08:12:47;;;;;;;14.77;12.75;;;;;;;;;;1898040;75;20181;-78
2021/06/07 08:15:12;;;;;;;14.27;12.77;;;;;;;;;;1897526;67;20144;-77
2021/06/07 08:17:38;;;;;;;14.60;13.05;;;;;;;;;;1901038;75;20139;-79
2021/06/07 08:20:11;;;;;;;21.05;15.38;;;;;;;;;;1898099;75;20521;-76
2021/06/07 08:22:37;;;;;;;17.13;14.38;;;;;;;;;;1898687;75;20519;-77
2021/06/07 08:25:04;;;;;;;14.35;12.77;;;;;;;;;;1901446;75;20096;-77
2021/06/07 08:27:30;;;;;;;15.80;13.43;;;;;;;;;;1898451;67;20088;-77
2021/06/07 08:29:55;;;;;;;17.35;13.63;;;;;;;;;;1900643;75;20081;-77
2021/06/07 08:32:21;;;;;;;16.90;14.30;;;;;;;;;;1900741;75;20085;-75
2021/06/07 08:34:46;;;;;;;15.40;13.65;;;;;;;;;;1898285;75;20101;-77
2021/06/07 08:37:12;;;;;;;17.25;14.65;;;;;;;;;;1898359;67;20408;-77
2021/06/07 08:39:37;;;;;;;15.25;13.65;;;;;;;;;;1898561;75;20100;-76
2021/06/07 08:42:03;;;;;;;16.27;14.45;;;;;;;;;;1902896;75;20093;-77
2021/06/07 08:44:28;;;;;;;15.00;13.40;;;;;;;;;;1903875;75;20092;-75
2021/06/07 08:46:54;;;;;;;18.17;13.85;;;;;;;;;;1898958;75;20081;-77
2021/06/07 08:49:20;;;;;;;15.23;13.55;;;;;;;;;;1899115;67;20089;-77
2021/06/07 08:51:45;;;;;;;14.57;13.07;;;;;;;;;;1900785;75;20096;-77
2021/06/07 08:54:11;;;;;;;17.60;13.90;;;;;;;;;;1899685;75;20085;-76
2021/06/07 08:56:36;;;;;;;16.05;13.57;;;;;;;;;;1897469;75;20078;-79
2021/06/07 08:59:01;;;;;;;15.45;13.80;;;;;;;;;;1898307;75;20081;-77
2021/06/07 09:01:27;;;;;;;14.93;12.63;;;;;;;;;;1903600;67;20085;-75
2021/06/07 09:03:52;;;;;;;15.65;13.68;;;;;;;;;;1898652;75;20085;-77
2021/06/07 09:06:24;;;;;;;15.75;13.80;;;;;;;;;;1900626;75;20092;-77
2021/06/07 09:08:49;;;;;;;16.13;13.82;;;;;;;;;;1900818;75;20542;-77
2021/06/07 09:11:16;;;;;;;15.90;13.70;;;;;;;;;;1899844;67;20092;-76
2021/06/07 09:13:41;;;;;;;16.58;14.35;;;;;;;;;;1897971;75;20093;-77
2021/06/07 09:16:09;;;;;;;15.98;13.85;;;;;;;;;;1899570;75;20085;-75
2021/06/07 09:18:42;;;;;;;16.50;13.63;;;;;;;;;;1898302;75;20077;-78
2021/06/07 09:21:13;;;;;;;15.90;13.50;;;;;;;;;;1898376;67;20540;-76
2021/06/07 09:23:47;;;;;;;15.85;13.40;;;;;;;;;;1899475;75;20085;-76
2021/06/07 09:26:29;;;;;;;15.23;13.63;;;;;;;;;;1899108;75;20306;-76
2021/06/07 09:28:56;;;;;;;16.23;13.50;;;;;;;;;;1899419;75;20155;-76
2021/06/07 09:31:33;;;;;;;19.00;14.10;;;;;;;;;;1897293;75;20077;-76
2021/06/07 09:34:01;;;;;;;15.15;13.05;;;;;;;;;;1896960;67;20089;-77
2021/06/07 09:36:32;;;;;;;15.40;13.52;;;;;;;;;;1899217;75;20089;-76
2021/06/07 09:39:14;;;;;;;14.68;12.95;;;;;;;;;;1897476;75;20199;-77
2021/06/07 09:41:53;;;;;;;15.02;13.43;;;;;;;;;;1901491;75;20635;-77
2021/06/07 09:44:28;;;;;;;14.43;12.93;;;;;;;;;;1902415;67;20085;-76
2021/06/07 09:47:07;;;;;;;13.90;12.43;;;;;;;;;;1897707;75;20089;-75
2021/06/07 09:49:52;;;;;;;15.95;13.00;;;;;;;;;;1902625;67;20097;-76
2021/06/07 09:52:27;;;;;;;16.88;12.75;;;;;;;;;;1899700;75;20081;-76
2021/06/07 09:55:18;;;;;;;13.95;12.38;;;;;;;;;;1902639;67;20100;-77
2021/06/07 09:57:48;;;;;;;14.40;12.57;;;;;;;;;;1899258;75;20081;-75
2021/06/07 10:00:50;;;;;;;15.15;12.63;;;;;;;;;;1898553;75;20498;-76
2021/06/07 10:03:19;;;;;;;13.85;12.25;;;;;;;;;;1903155;75;20147;-77
2021/06/07 10:05:45;;;;;;;13.00;11.55;;;;;;;;;;1900415;67;20168;-77
2021/06/07 10:08:11;;;;;;;13.38;11.98;;;;;;;;;;1895500;75;20193;-78
2021/06/07 10:10:36;;;;;;;13.30;11.90;;;;;;;;;;1899922;75;20452;-80
2021/06/07 10:13:06;;;;;;;13.52;12.13;;;;;;;;;;1897998;75;20099;-78
2021/06/07 10:15:40;;;;;;;14.10;11.77;;;;;;;;;;1901614;75;20089;-77
2021/06/07 10:18:07;;;;;;;13.38;11.98;;;;;;;;;;1902385;67;20491;-77
2021/06/07 10:22:58;;;;;;;13.38;11.98;;;;;;;;;;1901173;75;20139;-76
2021/06/07 10:25:23;;;;;;;15.68;12.40;;;;;;;;;;1899957;67;20090;-78
2021/06/07 10:27:49;;;;;;;13.65;12.25;;;;;;;;;;1899570;68;20085;-80
2021/06/07 10:30:19;;;;;;;13.48;12.07;;;;;;;;;;1907037;75;20080;-79
2021/06/07 10:32:45;;;;;;;14.00;12.60;;;;;;;;;;1901751;75;20085;-77
2021/06/07 10:35:11;;;;;;;13.05;11.75;;;;;;;;;;1897392;75;20508;-76
2021/06/07 10:37:56;;;;;;;13.23;11.82;;;;;;;;;;1904444;75;20085;-76
2021/06/07 10:40:23;;;;;;;13.23;11.82;;;;;;;;;;1902081;67;20096;-75
2021/06/07 10:43:07;;;;;;;12.75;11.40;;;;;;;;;;1898971;75;20077;-77
2021/06/07 10:45:38;;;;;;;13.68;12.25;;;;;;;;;;1900387;75;20148;-73
2021/06/07 10:48:05;;;;;;;16.85;12.00;;;;;;;;;;1901525;75;20137;-76
2021/06/07 10:50:35;;;;;;;14.00;11.90;;;;;;;;;;1897324;67;20085;-75
2021/06/07 10:53:03;;;;;;;13.93;12.38;;;;;;;;;;1895904;75;20137;-75
2021/06/07 10:55:41;;;;;;;16.08;11.77;;;;;;;;;;1899052;75;20081;-75
2021/06/07 10:58:13;;;;;;;13.43;12.07;;;;;;;;;;1898500;75;20451;-75
2021/06/07 11:00:39;;;;;;;14.50;13.00;;;;;;;;;;1899922;67;20085;-76
2021/06/07 11:03:19;;;;;;;12.70;11.35;;;;;;;;;;1898804;75;20873;-76
2021/06/07 11:05:44;;;;;;;13.03;11.80;;;;;;;;;;1896308;75;20098;-75
2021/06/07 11:08:21;;;;;;;13.77;12.20;;;;;;;;;;1896012;75;20384;-75
2021/06/07 11:10:48;;;;;;;12.85;11.65;;;;;;;;;;1896096;75;20136;-74
2021/06/07 11:13:18;;;;;;;12.38;11.18;;;;;;;;;;1898738;67;20081;-75
2021/06/07 11:15:53;;;;;;;12.82;11.48;;;;;;;;;;1899130;60;20100;-75
2021/06/07 11:18:19;;;;;;;12.80;11.27;;;;;;;;;;1898813;75;20390;-76
2021/06/07 11:20:44;;;;;;;13.65;11.82;;;;;;;;;;1902314;75;20505;-75
2021/06/07 11:23:11;;;;;;;13.32;12.02;;;;;;;;;;1900202;67;20100;-75
2021/06/07 11:25:48;;;;;;;13.27;11.70;;;;;;;;;;1897010;75;20088;-76
2021/06/07 11:28:38;;;;;;;13.70;12.30;;;;;;;;;;1898882;75;20425;-75
2021/06/07 11:31:05;;;;;;;14.00;12.45;;;;;;;;;;1896670;75;20188;-75
2021/06/07 11:33:56;;;;;;;14.82;12.48;;;;;;;;;;1901934;67;20110;-75
2021/06/07 11:36:40;;;;;;;13.55;12.07;;;;;;;;;;1899086;75;20077;-75
2021/06/07 11:39:13;;;;;;;13.02;11.68;;;;;;;;;;1903161;67;20081;-75
2021/06/07 11:41:45;;;;;;;12.48;11.27;;;;;;;;;;1895089;67;20144;-75
2021/06/07 11:44:10;;;;;;;12.50;10.63;;;;;;;;;;1903547;67;20085;-75
2021/06/07 11:46:39;;;;;;;12.30;11.02;;;;;;;;;;1897735;75;20108;-75
2021/06/07 11:49:14;;;;;;;12.65;11.35;;;;;;;;;;1902135;75;20085;-74
2021/06/07 11:51:44;;;;;;;12.57;10.23;;;;;;;;;;1898671;75;20085;-75
2021/06/07 11:54:24;;;;;;;12.07;10.87;;;;;;;;;;1897756;75;20089;-75
2021/06/07 11:56:57;;;;;;;13.05;11.73;;;;;;;;;;1898944;67;20100;-75
2021/06/07 11:59:23;;;;;;;13.13;11.75;;;;;;;;;;1896155;75;20082;-75
2021/06/07 12:01:49;;;;;;;12.02;10.77;;;;;;;;;;1897781;75;20105;-76
2021/06/07 12:04:24;;;;;;;11.52;10.38;;;;;;;;;;1903455;67;20085;-74
2021/06/07 12:06:50;;;;;;;12.38;11.10;;;;;;;;;;1897748;67;20115;-76
2021/06/07 12:09:15;;;;;;;12.68;11.38;;;;;;;;;;1902515;67;20538;-75
2021/06/07 12:11:41;;;;;;;13.48;11.35;;;;;;;;;;1901743;75;20494;-76
2021/06/07 12:14:06;;;;;;;12.13;10.90;;;;;;;;;;1899626;75;20475;-73
2021/06/07 12:16:37;;;;;;;11.85;10.75;;;;;;;;;;1899294;67;20499;-74
2021/06/07 12:19:09;;;;;;;11.43;10.32;;;;;;;;;;1897521;67;20086;-75
2021/06/07 12:21:34;;;;;;;12.30;11.02;;;;;;;;;;1896691;67;20376;-75
2021/06/07 12:24:10;;;;;;;12.98;11.60;;;;;;;;;;1899876;75;20515;-75
2021/06/07 12:29:33;;;;;;;12.57;10.85;;;;;;;;;;1896797;67;20163;-73
2021/06/07 12:32:12;;;;;;;13.43;11.38;;;;;;;;;;1900803;75;20538;-73
2021/06/07 12:34:56;;;;;;;13.77;11.55;;;;;;;;;;1902124;75;20100;-75
2021/06/07 12:37:33;;;;;;;12.82;11.50;;;;;;;;;;1899292;67;20081;-75
2021/06/07 12:40:16;;;;;;;11.90;10.70;;;;;;;;;;1899247;67;20084;-76
2021/06/07 12:42:42;;;;;;;11.70;10.57;;;;;;;;;;1898319;67;20140;-74
2021/06/07 12:45:19;;;;;;;11.98;10.65;;;;;;;;;;1897266;75;20148;-75
2021/06/07 12:47:45;;;;;;;13.77;11.85;;;;;;;;;;1898357;75;20081;-74
2021/06/07 12:50:29;;;;;;;13.52;12.23;;;;;;;;;;1896615;67;20093;-75
2021/06/07 12:52:55;;;;;;;14.90;11.07;;;;;;;;;;1900039;75;20084;-76
2021/06/07 12:55:23;;;;;;;13.30;11.05;;;;;;;;;;1899583;75;20093;-79
2021/06/07 12:57:49;;;;;;;13.93;11.43;;;;;;;;;;1899379;75;20081;-75
2021/06/07 13:00:47;;;;;;;12.98;11.52;;;;;;;;;;1900012;75;20088;-77
2021/06/07 13:03:24;;;;;;;11.63;10.27;;;;;;;;;;1900022;67;20089;-75
2021/06/07 13:06:12;;;;;;;13.25;11.52;;;;;;;;;;1897439;75;20085;-75
2021/06/07 13:09:03;;;;;;;12.07;10.88;;;;;;;;;;1902651;75;20092;-76
2021/06/07 13:11:36;;;;;;;12.70;11.40;;;;;;;;;;1899936;75;20093;-76
2021/06/07 13:14:02;;;;;;;12.68;11.20;;;;;;;;;;1903240;67;20139;-76
2021/06/07 13:16:32;;;;;;;12.35;11.05;;;;;;;;;;1900111;75;20441;-75
2021/06/07 13:19:08;;;;;;;11.57;10.48;;;;;;;;;;1899986;75;20092;-80
2021/06/07 13:22:03;;;;;;;12.73;10.25;;;;;;;;;;1899250;75;20089;-73
2021/06/07 13:24:29;;;;;;;12.40;11.00;;;;;;;;;;1900296;67;20104;-76
2021/06/07 13:27:04;;;;;;;12.30;11.02;;;;;;;;;;1901446;75;20097;-78
2021/06/07 13:29:52;;;;;;;12.95;11.10;;;;;;;;;;1900195;75;20085;-74
2021/06/07 13:32:29;;;;;;;13.02;11.18;;;;;;;;;;1902399;75;20085;-76
2021/06/07 13:34:56;;;;;;;11.80;10.60;;;;;;;;;;1900041;67;20089;-76
2021/06/07 13:37:25;;;;;;;11.68;10.57;;;;;;;;;;1899687;75;20077;-75
2021/06/07 13:40:09;;;;;;;12.50;10.30;;;;;;;;;;1903181;75;20108;-76
2021/06/07 13:42:47;;;;;;;11.45;10.23;;;;;;;;;;1900035;75;20096;-77
2021/06/07 13:45:14;;;;;;;11.00;9.93;;;;;;;;;;1903205;67;20081;-76
2021/06/07 13:47:40;;;;;;;11.50;10.30;;;;;;;;;;1896855;75;20081;-76
2021/06/07 13:50:10;;;;;;;11.38;10.18;;;;;;;;;;1898923;67;20212;-76
2021/06/07 13:52:39;;;;;;;11.40;9.63;;;;;;;;;;1897117;75;20129;-75
2021/06/07 13:55:23;;;;;;;11.38;10.27;;;;;;;;;;1899492;75;20510;-77
2021/06/07 13:57:59;;;;;;;11.45;10.25;;;;;;;;;;1902749;67;20096;-76
2021/06/07 14:00:25;;;;;;;10.88;9.77;;;;;;;;;;1900540;75;20143;-75
2021/06/07 14:02:51;;;;;;;10.70;9.68;;;;;;;;;;1900501;75;20159;-76
2021/06/07 14:05:24;;;;;;;11.38;10.25;;;;;;;;;;1896677;67;20464;-77
2021/06/07 14:07:50;;;;;;;10.77;9.75;;;;;;;;;;1899604;67;20077;-77
2021/06/07 14:10:15;;;;;;;10.90;9.90;;;;;;;;;;1901289;67;20091;-76
2021/06/07 14:12:41;;;;;;;10.30;9.20;;;;;;;;;;1901782;75;20084;-76
2021/06/07 14:15:07;;;;;;;11.32;9.55;;;;;;;;;;1898473;75;20141;-77
2021/06/07 14:17:32;;;;;;;10.88;9.85;;;;;;;;;;1896099;75;20120;-75
2021/06/07 14:19:58;;;;;;;10.40;9.35;;;;;;;;;;1901980;67;20140;-78
2021/06/07 14:24:49;;;;;;;10.63;9.52;;;;;;;;;;1898651;75;20093;-76
2021/06/07 14:27:14;;;;;;;10.93;9.90;;;;;;;;;;1900837;67;20179;-77
2021/06/07 14:29:42;;;;;;;9.85;8.95;;;;;;;;;;1900097;67;20093;-76
2021/06/07 14:32:07;;;;;;;10.30;9.38;;;;;;;;;;1901671;75;20081;-76
2021/06/07 14:34:32;;;;;;;10.85;9.75;;;;;;;;;;1896462;75;20135;-78
2021/06/07 14:36:58;;;;;;;11.75;10.02;;;;;;;;;;1898715;75;20093;-76
2021/06/07 14:39:24;;;;;;;11.00;9.90;;;;;;;;;;1896362;75;20081;-77
2021/06/07 14:41:49;;;;;;;9.77;8.82;;;;;;;;;;1895539;68;20081;-77